Time;durP1;ratioP1;P1;durP2;ratioP2;P2;SDS_P1;SDS_P2;PMS_P1;PMS_P2;Temp;Humidity;BMP_temperature;BMP_pressure;BME280_temperature;BME280_humidity;BME280_pressure;Samples;Min_cycle;Max_cycle;Signal;HPM_P1;HPM_P2
2023/12/17 00:04:52;;;;;;;1999.90;999.90;;;;;;;16.48;71.85;103603.63;10438430;28;20080;-71
2023/12/17 00:09:54;;;;;;;1999.90;999.90;;;;;;;16.03;76.62;103617.59;10456068;28;20496;-71
2023/12/17 00:14:57;;;;;;;1999.90;999.90;;;;;;;16.29;73.20;103624.56;10455832;28;20132;-71
2023/12/17 00:19:59;;;;;;;1999.90;999.90;;;;;;;15.73;76.43;103633.56;10456506;28;20041;-71
2023/12/17 00:25:02;;;;;;;1999.90;999.90;;;;;;;15.67;78.87;103629.38;10455812;28;20057;-71
2023/12/17 00:30:04;;;;;;;1999.90;999.90;;;;;;;15.50;77.08;103624.66;10462968;28;20045;-71
2023/12/17 00:35:07;;;;;;;1999.90;999.90;;;;;;;15.65;75.79;103614.47;10462845;28;20111;-71
2023/12/17 00:40:10;;;;;;;1999.90;999.90;;;;;;;16.30;75.08;103611.28;10462538;28;20128;-71
2023/12/17 00:45:12;;;;;;;1999.90;999.90;;;;;;;16.24;76.34;103614.19;10463343;28;20081;-71
2023/12/17 00:50:15;;;;;;;1999.90;999.90;;;;;;;16.99;70.81;103613.09;10462044;28;20045;-71
2023/12/17 00:55:17;;;;;;;1999.90;999.90;;;;;;;16.89;70.71;103606.47;10462918;28;20132;-71
2023/12/17 01:00:19;;;;;;;1999.90;999.90;;;;;;;15.92;76.10;103600.34;10462513;28;20041;-70
2023/12/17 01:05:22;;;;;;;1999.90;999.90;;;;;;;15.48;78.21;103612.41;10461426;28;20484;-71
2023/12/17 01:10:24;;;;;;;1999.90;999.90;;;;;;;16.29;74.58;103611.34;10462200;28;20045;-71
2023/12/17 01:15:27;;;;;;;1999.90;999.90;;;;;;;16.29;75.13;103609.59;10462406;28;20053;-71
2023/12/17 01:20:29;;;;;;;1999.90;999.90;;;;;;;15.45;77.92;103609.88;10462305;28;20062;-71
2023/12/17 01:25:32;;;;;;;1999.90;999.90;;;;;;;16.30;73.52;103613.94;10460145;28;20057;-71
2023/12/17 01:30:34;;;;;;;1999.90;999.90;;;;;;;15.91;76.13;103614.47;10461665;28;20472;-71
2023/12/17 01:35:37;;;;;;;1999.90;999.90;;;;;;;15.98;75.91;103618.63;10460298;28;20059;-71
2023/12/17 01:40:39;;;;;;;1999.90;999.90;;;;;;;16.61;73.38;103620.75;10459761;28;20072;-71
2023/12/17 01:45:42;;;;;;;1999.90;999.90;;;;;;;16.28;74.40;103614.94;10460722;28;20493;-71
2023/12/17 01:50:44;;;;;;;1999.90;999.90;;;;;;;16.83;71.90;103614.63;10459668;28;20491;-71
2023/12/17 01:55:49;;;;;;;1999.90;999.90;;;;;;;15.56;77.21;103613.88;10460424;28;20528;-71
2023/12/17 02:00:51;;;;;;;1999.90;999.90;;;;;;;16.96;70.71;103607.06;10459072;28;20055;-71
2023/12/17 02:05:54;;;;;;;1999.90;999.90;;;;;;;16.62;70.73;103606.56;10460070;28;20053;-70
2023/12/17 02:10:56;;;;;;;1999.90;999.90;;;;;;;16.36;71.96;103612.88;10458647;28;20411;-70
2023/12/17 02:15:58;;;;;;;1999.90;999.90;;;;;;;16.42;70.59;103607.34;10459575;28;20400;-70
2023/12/17 02:21:01;;;;;;;1999.90;999.90;;;;;;;16.09;73.31;103612.97;10459535;28;20045;-70
2023/12/17 02:26:04;;;;;;;1999.90;999.90;;;;;;;15.83;73.07;103608.59;10458997;28;20415;-70
2023/12/17 02:31:06;;;;;;;1999.90;999.90;;;;;;;16.42;72.14;103607.34;10458924;28;20612;-69
2023/12/17 02:36:09;;;;;;;1999.90;999.90;;;;;;;16.08;73.24;103592.72;10458800;28;20056;-69
2023/12/17 02:41:11;;;;;;;1999.90;999.90;;;;;;;16.13;72.19;103588.13;10457458;28;20052;-69
2023/12/17 02:46:14;;;;;;;1999.90;999.90;;;;;;;15.84;73.95;103601.56;10458531;28;20053;-69
2023/12/17 02:51:16;;;;;;;1999.90;999.90;;;;;;;15.14;74.53;103613.50;10457828;28;20472;-69
2023/12/17 02:56:18;;;;;;;1999.90;999.90;;;;;;;16.28;72.38;103601.72;10457970;28;20450;-70
2023/12/17 03:01:21;;;;;;;1999.90;999.90;;;;;;;16.31;70.99;103594.53;10456722;28;20051;-70
2023/12/17 03:06:23;;;;;;;1999.90;999.90;;;;;;;16.27;72.01;103606.16;10456615;28;20049;-70
2023/12/17 03:11:26;;;;;;;1999.90;999.90;;;;;;;17.83;65.91;103607.84;10456443;28;20103;-70
2023/12/17 03:16:29;;;;;;;1999.90;999.90;;;;;;;17.74;65.99;103592.38;10457325;28;20053;-70
2023/12/17 03:21:31;;;;;;;1999.90;999.90;;;;;;;15.74;73.61;103593.03;10455933;28;20416;-70
2023/12/17 03:26:33;;;;;;;1999.90;999.90;;;;;;;15.36;75.97;103580.22;10457097;28;20048;-71
2023/12/17 03:31:36;;;;;;;1999.90;999.90;;;;;;;16.94;71.15;103579.81;10455639;28;20051;-71
2023/12/17 03:36:38;;;;;;;1999.90;999.90;;;;;;;17.06;71.49;103580.19;10457171;28;20087;-70
2023/12/17 03:41:40;;;;;;;1999.90;999.90;;;;;;;17.62;67.89;103580.53;10456409;28;20041;-71
2023/12/17 03:46:43;;;;;;;1999.90;999.90;;;;;;;16.80;67.54;103578.56;10439117;28;20099;-70
2023/12/17 03:51:45;;;;;;;1999.90;999.90;;;;;;;16.64;69.96;103567.72;10455557;28;20052;-70
2023/12/17 03:56:47;;;;;;;1999.90;999.90;;;;;;;15.69;73.48;103555.38;10456471;28;20067;-70
2023/12/17 04:01:50;;;;;;;1999.90;999.90;;;;;;;16.07;71.27;103551.38;10458478;28;20598;-70
2023/12/17 04:06:52;;;;;;;1999.90;999.90;;;;;;;15.70;74.90;103536.84;10463791;28;20067;-71
2023/12/17 04:11:55;;;;;;;1999.90;999.90;;;;;;;15.96;75.07;103540.34;10464563;28;20128;-71
2023/12/17 04:16:58;;;;;;;1999.90;999.90;;;;;;;15.81;72.14;103538.25;10446557;28;20082;-70
2023/12/17 04:22:00;;;;;;;1999.90;999.90;;;;;;;16.41;69.73;103538.63;10464286;28;20052;-70
2023/12/17 04:27:03;;;;;;;1999.90;999.90;;;;;;;17.16;68.40;103548.03;10462861;28;20562;-69
2023/12/17 04:32:05;;;;;;;1999.90;999.90;;;;;;;15.82;73.76;103532.03;10463238;28;20055;-69
2023/12/17 04:37:08;;;;;;;1999.90;999.90;;;;;;;15.70;73.24;103528.03;10463409;28;20484;-70
2023/12/17 04:42:10;;;;;;;1999.90;999.90;;;;;;;17.30;69.32;103526.25;10463365;28;20055;-69
2023/12/17 04:47:13;;;;;;;1999.90;999.90;;;;;;;16.72;69.83;103539.16;10463147;28;20073;-71
2023/12/17 04:52:15;;;;;;;1999.90;999.90;;;;;;;16.56;70.06;103527.50;10461881;28;20060;-71
2023/12/17 04:57:17;;;;;;;1999.90;999.90;;;;;;;16.11;72.25;103530.97;10462974;28;20051;-71
2023/12/17 05:02:20;;;;;;;1999.90;999.90;;;;;;;16.59;70.90;103535.28;10463124;28;20131;-70
2023/12/17 05:07:22;;;;;;;1999.90;999.90;;;;;;;16.45;70.03;103527.91;10444971;28;20134;-70
2023/12/17 05:12:24;;;;;;;1999.90;999.90;;;;;;;16.74;72.08;103536.47;10461995;28;20084;-70
2023/12/17 05:17:27;;;;;;;1999.90;999.90;;;;;;;15.82;72.33;103530.28;10460729;28;20060;-70
2023/12/17 05:22:30;;;;;;;1999.90;999.90;;;;;;;16.25;72.22;103530.44;10444727;28;20123;-71
2023/12/17 05:27:32;;;;;;;1999.90;999.90;;;;;;;16.39;70.84;103521.97;10461693;28;20100;-71
2023/12/17 05:32:35;;;;;;;1999.90;999.90;;;;;;;16.31;72.02;103507.28;10461363;28;20135;-70
2023/12/17 05:37:37;;;;;;;1999.90;999.90;;;;;;;16.28;71.60;103509.19;10460012;28;20483;-71
2023/12/17 05:42:40;;;;;;;1999.90;999.90;;;;;;;15.78;75.49;103508.41;10460943;28;20060;-70
2023/12/17 05:47:42;;;;;;;1999.90;999.90;;;;;;;15.99;72.10;103505.88;10460011;28;20045;-71
2023/12/17 05:52:45;;;;;;;1999.90;999.90;;;;;;;16.28;72.54;103504.75;10461003;28;20415;-71
2023/12/17 05:57:50;;;;;;;1999.90;999.90;;;;;;;16.90;70.33;103512.94;10443004;28;20131;-70
2023/12/17 06:02:52;;;;;;;1999.90;999.90;;;;;;;17.07;68.03;103504.28;10460249;28;20531;-71
2023/12/17 06:07:55;;;;;;;1999.90;999.90;;;;;;;15.62;73.22;103504.53;10459925;28;20136;-70
2023/12/17 06:12:57;;;;;;;1999.90;999.90;;;;;;;17.07;68.79;103497.19;10458850;28;20045;-70
2023/12/17 06:17:59;;;;;;;1999.90;999.90;;;;;;;16.58;71.17;103501.00;10459573;28;20494;-70
2023/12/17 06:23:02;;;;;;;1999.90;999.90;;;;;;;15.72;73.61;103495.38;10459098;28;20072;-70
2023/12/17 06:28:04;;;;;;;1999.90;999.90;;;;;;;16.25;71.52;103498.72;10458724;28;20049;-70
2023/12/17 06:33:07;;;;;;;1999.90;999.90;;;;;;;16.23;71.71;103498.78;10459172;28;20045;-71
2023/12/17 06:38:09;;;;;;;1999.90;999.90;;;;;;;16.14;68.96;103515.88;10457533;28;20510;-71
2023/12/17 06:43:11;;;;;;;1999.90;999.90;;;;;;;16.82;67.91;103523.78;10458512;28;20128;-70
2023/12/17 06:48:14;;;;;;;1999.90;999.90;;;;;;;16.08;71.90;103525.81;10457143;28;20404;-70
2023/12/17 06:53:17;;;;;;;1999.90;999.90;;;;;;;16.63;68.76;103530.75;10458197;28;20132;-70
2023/12/17 06:58:20;;;;;;;1999.90;999.90;;;;;;;16.99;67.30;103538.16;10458213;28;20056;-70
2023/12/17 07:03:22;;;;;;;1999.90;999.90;;;;;;;16.40;69.39;103536.94;10456734;28;20063;-70
2023/12/17 07:08:25;;;;;;;1999.90;999.90;;;;;;;16.87;68.24;103535.06;10457582;28;20094;-70
2023/12/17 07:13:27;;;;;;;1999.90;999.90;;;;;;;15.87;71.62;103538.91;10456288;28;20521;-70
2023/12/17 07:18:30;;;;;;;1999.90;999.90;;;;;;;16.65;68.98;103526.25;10456088;28;20047;-70
2023/12/17 07:23:32;;;;;;;1999.90;999.90;;;;;;;16.58;68.70;103523.00;10456151;28;20049;-70
2023/12/17 07:28:35;;;;;;;1999.90;999.90;;;;;;;16.12;68.42;103536.22;10456884;28;20049;-69
2023/12/17 07:33:37;;;;;;;1999.90;999.90;;;;;;;16.78;66.62;103535.44;10456910;28;20506;-70
2023/12/17 07:38:40;;;;;;;1999.90;999.90;;;;;;;15.79;70.44;103533.03;10456123;28;20128;-69
2023/12/17 07:43:43;;;;;;;1999.90;999.90;;;;;;;16.39;68.00;103536.09;10455547;28;20044;-69
2023/12/17 07:48:45;;;;;;;1999.90;999.90;;;;;;;16.74;67.35;103535.59;10456711;28;20045;-69
2023/12/17 07:53:47;;;;;;;1999.90;999.90;;;;;;;15.32;71.59;103532.88;10456407;28;20059;-69
2023/12/17 07:58:51;;;;;;;1999.90;999.90;;;;;;;15.11;75.92;103539.72;10455168;28;20099;-69
2023/12/17 08:03:53;;;;;;;1999.90;999.90;;;;;;;14.94;73.56;103541.13;10455178;28;20056;-69
2023/12/17 08:08:57;;;;;;;1999.90;999.90;;;;;;;15.70;72.05;103539.47;10454786;28;20551;-69
2023/12/17 08:13:59;;;;;;;1999.90;999.90;;;;;;;15.78;69.75;103539.22;10456045;28;20049;-69
2023/12/17 08:19:02;;;;;;;1999.90;999.90;;;;;;;15.49;72.49;103545.50;10454732;28;20057;-69
2023/12/17 08:24:04;;;;;;;1999.90;999.90;;;;;;;14.93;73.14;103538.53;10455385;28;20053;-69
2023/12/17 08:29:07;;;;;;;1999.90;999.90;;;;;;;14.23;75.53;103545.06;10455755;28;20492;-69
2023/12/17 08:34:09;;;;;;;1999.90;999.90;;;;;;;14.61;73.76;103545.72;10454665;28;20048;-69
2023/12/17 08:39:11;;;;;;;1999.90;999.90;;;;;;;15.19;69.49;103530.63;10466504;22;20407;-70
2023/12/17 08:44:17;;;;;;;1999.90;999.90;;;;;;;15.93;69.13;103528.09;10455435;28;20084;-70
2023/12/17 08:49:20;;;;;;;1999.90;999.90;;;;;;;15.76;70.78;103528.69;10460225;28;20131;-70
2023/12/17 08:54:23;;;;;;;1999.90;999.90;;;;;;;15.66;70.80;103523.78;10462995;28;20115;-70
2023/12/17 08:59:25;;;;;;;1999.90;999.90;;;;;;;15.20;73.17;103532.38;10463080;28;20049;-70
2023/12/17 09:04:27;;;;;;;1999.90;999.90;;;;;;;15.00;73.08;103535.66;10462545;28;20377;-70
2023/12/17 09:09:30;;;;;;;1999.90;999.90;;;;;;;16.00;68.29;103525.22;10462261;28;20479;-70
2023/12/17 09:14:32;;;;;;;1999.90;999.90;;;;;;;15.00;71.50;103532.19;10460981;28;20549;-70
2023/12/17 09:19:35;;;;;;;1999.90;999.90;;;;;;;14.78;72.11;103538.13;10461915;28;20049;-70
2023/12/17 09:24:37;;;;;;;1999.90;999.90;;;;;;;15.41;70.88;103522.84;10461928;28;20137;-70
2023/12/17 09:29:40;;;;;;;1999.90;999.90;;;;;;;15.21;73.26;103525.31;10461486;28;20045;-70
2023/12/17 09:34:42;;;;;;;1999.90;999.90;;;;;;;15.57;70.45;103531.09;10461471;28;20053;-70
2023/12/17 09:39:45;;;;;;;1999.90;999.90;;;;;;;15.32;70.61;103536.38;10459896;28;20059;-70
2023/12/17 09:44:48;;;;;;;1999.90;999.90;;;;;;;15.64;69.21;103534.41;10443252;28;20076;-70
2023/12/17 09:49:50;;;;;;;1999.90;999.90;;;;;;;15.91;69.03;103540.50;10459730;28;20041;-70
2023/12/17 09:54:53;;;;;;;1999.90;999.90;;;;;;;15.30;69.92;103546.13;10460685;28;20045;-70
2023/12/17 09:59:55;;;;;;;1999.90;999.90;;;;;;;13.48;76.20;103550.59;10459560;28;20459;-71
2023/12/17 10:04:57;;;;;;;1999.90;999.90;;;;;;;14.56;72.74;103555.47;10460196;28;20091;-70
2023/12/17 10:10:00;;;;;;;1999.90;999.90;;;;;;;15.22;70.93;103546.38;10458929;28;20454;-70
2023/12/17 10:15:03;;;;;;;1999.90;999.90;;;;;;;15.39;70.05;103550.22;10458695;28;20060;-70
2023/12/17 10:20:06;;;;;;;1999.90;999.90;;;;;;;14.08;74.99;103549.00;10459571;28;20124;-70
2023/12/17 10:25:23;;;;;;;1999.90;999.90;;;;;;;14.56;73.83;103547.56;10458406;28;20045;-70
2023/12/17 10:30:32;;;;;;;1999.90;999.90;;;;;;;14.10;76.05;103528.72;10458194;28;20051;-71
2023/12/17 10:35:35;;;;;;;1999.90;999.90;;;;;;;14.36;75.74;103529.75;10457780;28;20106;-70
2023/12/17 10:40:40;;;;;;;1999.90;999.90;;;;;;;13.86;76.06;103531.16;10457358;28;20403;-70
2023/12/17 10:45:43;;;;;;;1999.90;999.90;;;;;;;14.71;73.68;103528.69;10457937;28;20392;-70
2023/12/17 10:50:46;;;;;;;1999.90;999.90;;;;;;;13.52;77.08;103534.69;10457593;28;20049;-70
2023/12/17 10:55:49;;;;;;;1999.90;999.90;;;;;;;13.57;76.10;103537.22;10457369;28;20049;-70
2023/12/17 11:00:51;;;;;;;1999.90;999.90;;;;;;;14.20;73.45;103519.66;10457955;28;20502;-70
2023/12/17 11:05:58;;;;;;;1999.90;999.90;;;;;;;13.63;77.92;103505.44;10457684;28;20407;-70
2023/12/17 11:11:02;;;;;;;1999.90;999.90;;;;;;;14.37;75.68;103515.66;10456851;28;20124;-70
2023/12/17 11:16:28;;;;;;;1999.90;999.90;;;;;;;13.43;76.14;103499.84;10456372;28;20049;-70
2023/12/17 11:21:32;;;;;;;1999.90;999.90;;;;;;;14.37;72.86;103497.19;10456864;28;20045;-70
2023/12/17 11:26:43;;;;;;;1999.90;999.90;;;;;;;13.79;74.26;103492.75;10456216;28;20049;-71
2023/12/17 11:31:46;;;;;;;1999.90;999.90;;;;;;;13.89;74.59;103486.31;10439677;28;20099;-70
2023/12/17 11:36:49;;;;;;;1999.90;999.90;;;;;;;14.33;72.53;103471.88;10455555;28;20061;-71
2023/12/17 11:41:51;;;;;;;1999.90;999.90;;;;;;;14.09;74.01;103466.44;10455813;28;20051;-71
2023/12/17 11:46:54;;;;;;;1999.90;999.90;;;;;;;14.10;73.34;103462.88;10457039;28;20491;-71
2023/12/17 11:51:56;;;;;;;1999.90;999.90;;;;;;;14.36;72.43;103456.81;10455142;28;20600;-70
2023/12/17 11:56:58;;;;;;;1999.90;999.90;;;;;;;14.30;72.50;103444.66;10455252;28;20132;-70
2023/12/17 12:02:02;;;;;;;1999.90;999.90;;;;;;;13.26;75.68;103430.09;10454970;28;20106;-70
2023/12/17 12:07:05;;;;;;;1999.90;999.90;;;;;;;14.17;72.02;103432.81;10456282;28;20060;-70
2023/12/17 12:12:21;;;;;;;1999.90;999.90;;;;;;;14.39;71.09;103419.81;10454755;28;20056;-70
2023/12/17 12:17:38;;;;;;;1999.90;999.90;;;;;;;15.40;66.85;103401.50;10455009;28;20129;-70
2023/12/17 12:22:42;;;;;;;1999.90;999.90;;;;;;;14.81;68.83;103403.53;10456915;28;20049;-70
2023/12/17 12:27:50;;;;;;;1999.90;999.90;;;;;;;15.01;68.81;103402.84;10462957;28;20408;-70
2023/12/17 12:32:52;;;;;;;1999.90;999.90;;;;;;;14.41;70.70;103399.53;10462743;28;20124;-70
2023/12/17 12:37:57;;;;;;;1999.90;999.90;;;;;;;14.74;67.55;103372.13;10462356;28;20057;-71
2023/12/17 12:43:03;;;;;;;1999.90;999.90;;;;;;;13.68;70.74;103369.28;10463619;28;20052;-70
2023/12/17 12:48:16;;;;;;;1999.90;999.90;;;;;;;14.54;68.04;103354.31;10462134;28;20051;-70
2023/12/17 12:53:20;;;;;;;1999.90;999.90;;;;;;;14.09;69.08;103351.38;10463254;28;20099;-70
2023/12/17 12:58:30;;;;;;;1999.90;999.90;;;;;;;14.94;67.87;103339.81;10461839;28;20439;-70
2023/12/17 13:03:33;;;;;;;1999.90;999.90;;;;;;;15.29;65.55;103340.31;10461755;28;20056;-70
2023/12/17 13:08:35;;;;;;;1999.90;999.90;;;;;;;15.29;66.50;103332.41;10462491;28;20052;-70
2023/12/17 13:13:37;;;;;;;1999.90;999.90;;;;;;;15.16;66.22;103338.13;10462538;28;20059;-70
2023/12/17 13:18:40;;;;;;;1999.90;999.90;;;;;;;15.58;65.02;103331.28;10460913;28;20482;-70
2023/12/17 13:23:42;;;;;;;1999.90;999.90;;;;;;;15.70;63.56;103332.59;10461943;28;20045;-71
2023/12/17 13:28:45;;;;;;;1999.90;999.90;;;;;;;14.35;68.61;103322.47;10462162;28;20400;-71
2023/12/17 13:33:48;;;;;;;1999.90;999.90;;;;;;;15.27;65.19;103319.25;10460228;28;20408;-70
2023/12/17 13:38:50;;;;;;;1999.90;999.90;;;;;;;15.58;64.38;103313.69;10460017;28;20492;-70
2023/12/17 13:43:53;;;;;;;1999.90;999.90;;;;;;;15.13;65.21;103314.50;10461091;28;20053;-70
2023/12/17 13:48:55;;;;;;;1999.90;999.90;;;;;;;15.23;64.62;103312.34;10459623;28;20049;-70
2023/12/17 13:53:58;;;;;;;1999.90;999.90;;;;;;;15.28;64.08;103305.16;10460756;28;20071;-70
2023/12/17 13:59:01;;;;;;;1999.90;999.90;;;;;;;15.12;64.31;103280.25;10459397;28;20053;-70
2023/12/17 14:04:03;;;;;;;1999.90;999.90;;;;;;;14.50;65.65;103285.03;10460323;28;20506;-70
2023/12/17 14:09:06;;;;;;;1999.90;999.90;;;;;;;15.17;64.28;103284.41;10460077;28;20127;-70
2023/12/17 14:14:09;;;;;;;1999.90;999.90;;;;;;;15.07;63.13;103284.81;10460149;28;20049;-70
2023/12/17 14:19:11;;;;;;;1999.90;999.90;;;;;;;15.26;63.43;103271.81;10458600;28;20484;-70
2023/12/17 14:24:14;;;;;;;1999.90;999.90;;;;;;;14.81;64.76;103265.50;10459839;28;20063;-70
2023/12/17 14:29:17;;;;;;;1999.90;999.90;;;;;;;15.20;64.04;103268.47;10458073;28;20494;-70
2023/12/17 14:34:19;;;;;;;1999.90;999.90;;;;;;;14.73;64.15;103276.34;10459213;28;20561;-70
2023/12/17 14:39:22;;;;;;;1999.90;999.90;;;;;;;14.56;64.44;103271.66;10457766;28;20053;-70
2023/12/17 14:44:24;;;;;;;1999.90;999.90;;;;;;;15.04;62.53;103270.81;10457259;28;20061;-70
2023/12/17 14:49:27;;;;;;;1999.90;999.90;;;;;;;14.07;63.60;103275.94;10458429;28;20075;-70
2023/12/17 14:54:30;;;;;;;1999.90;999.90;;;;;;;14.71;65.06;103265.00;10458995;28;20083;-70
2023/12/17 14:59:36;;;;;;;1999.90;999.90;;;;;;;14.25;64.66;103262.13;10458168;28;20128;-70
2023/12/17 15:04:38;;;;;;;1999.90;999.90;;;;;;;14.46;63.38;103259.72;10457118;28;20053;-70
2023/12/17 15:09:41;;;;;;;1999.90;999.90;;;;;;;14.07;64.51;103258.38;10457742;28;20052;-70
2023/12/17 15:14:44;;;;;;;1999.90;999.90;;;;;;;13.48;66.38;103269.88;10456770;28;20049;-68
2023/12/17 15:19:47;;;;;;;1999.90;999.90;;;;;;;13.74;66.89;103258.53;10457504;28;20127;-68
2023/12/17 15:24:49;;;;;;;1999.90;999.90;;;;;;;13.65;67.83;103264.09;10457297;28;20123;-68
2023/12/17 15:29:52;;;;;;;1999.90;999.90;;;;;;;13.78;65.37;103261.06;10457236;28;20045;-68
2023/12/17 15:34:54;;;;;;;1999.90;999.90;;;;;;;13.68;65.22;103268.41;10455815;28;20055;-68
2023/12/17 15:39:57;;;;;;;1999.90;999.90;;;;;;;13.79;63.92;103266.28;10456862;28;20053;-68
2023/12/17 15:44:59;;;;;;;1999.90;999.90;;;;;;;13.79;65.42;103257.53;10456714;28;20483;-68
2023/12/17 15:50:08;;;;;;;1999.90;999.90;;;;;;;13.25;65.47;103270.53;10456700;28;20049;-68
2023/12/17 15:55:10;;;;;;;1999.90;999.90;;;;;;;13.05;67.83;103280.78;10455349;28;20526;-68
2023/12/17 16:00:14;;;;;;;1999.90;999.90;;;;;;;13.33;66.35;103275.59;10455485;28;20456;-68
2023/12/17 16:05:17;;;;;;;1999.90;999.90;;;;;;;13.68;64.44;103265.75;10456652;28;20076;-68
2023/12/17 16:10:19;;;;;;;1999.90;999.90;;;;;;;12.25;67.13;103265.34;10456164;28;20057;-68
2023/12/17 16:15:22;;;;;;;1999.90;999.90;;;;;;;13.04;65.55;103266.75;10455090;28;20056;-68
2023/12/17 16:20:24;;;;;;;1999.90;999.90;;;;;;;12.81;65.13;103267.41;10455827;28;20530;-68
2023/12/17 16:25:27;;;;;;;1999.90;999.90;;;;;;;12.77;65.94;103265.75;10454592;28;20107;-68
2023/12/17 16:30:30;;;;;;;1999.90;999.90;;;;;;;13.02;67.60;103265.94;10455573;28;20124;-67
2023/12/17 16:35:33;;;;;;;1999.90;999.90;;;;;;;12.98;65.11;103265.16;10456493;28;20059;-67
2023/12/17 16:40:35;;;;;;;1999.90;999.90;;;;;;;12.08;68.11;103261.38;10455953;28;20125;-66
2023/12/17 16:45:38;;;;;;;1999.90;999.90;;;;;;;12.43;66.77;103250.88;10454262;28;20525;-67
2023/12/17 16:50:41;;;;;;;1999.90;999.90;;;;;;;12.22;67.39;103239.16;10455585;28;20045;-66
2023/12/17 16:55:43;;;;;;;1999.90;999.90;;;;;;;11.98;70.53;103235.38;10455297;28;20404;-66
2023/12/17 17:00:45;;;;;;;1999.90;999.90;;;;;;;12.20;69.00;103240.97;10455380;28;20128;-66
2023/12/17 17:05:48;;;;;;;1999.90;999.90;;;;;;;12.94;66.07;103246.88;10455499;28;20131;-66
2023/12/17 17:10:53;;;;;;;1999.90;999.90;;;;;;;11.99;67.48;103232.72;10460095;28;20080;-66
2023/12/17 17:16:02;;;;;;;1999.90;999.90;;;;;;;12.34;68.25;103216.97;10462465;28;20052;-66
2023/12/17 17:21:04;;;;;;;1999.90;999.90;;;;;;;11.57;68.62;103217.06;10462250;28;20048;-67
2023/12/17 17:26:07;;;;;;;1999.90;999.90;;;;;;;12.48;66.49;103206.09;10462158;28;20129;-66
2023/12/17 17:31:14;;;;;;;1999.90;999.90;;;;;;;12.50;65.58;103209.53;10461783;28;20045;-66
2023/12/17 17:36:17;;;;;;;1999.90;999.90;;;;;;;12.45;65.97;103201.78;10461479;28;20053;-66
2023/12/17 17:41:19;;;;;;;1999.90;999.90;;;;;;;12.82;65.47;103203.38;10460601;28;20106;-67
2023/12/17 17:46:22;;;;;;;1999.90;999.90;;;;;;;12.52;66.37;103194.59;10461092;28;20049;-66
2023/12/17 17:51:24;;;;;;;1999.90;999.90;;;;;;;11.42;69.93;103186.78;10460939;28;20059;-67
2023/12/17 17:56:26;;;;;;;1999.90;999.90;;;;;;;11.61;68.25;103181.97;10460763;28;20135;-66
2023/12/17 18:01:29;;;;;;;1999.90;999.90;;;;;;;12.11;68.04;103181.66;10460490;28;20506;-66
2023/12/17 18:06:32;;;;;;;1999.90;999.90;;;;;;;12.27;67.35;103184.75;10459708;28;20061;-66
2023/12/17 18:11:35;;;;;;;1999.90;999.90;;;;;;;11.61;69.23;103168.84;10460271;28;20080;-67
2023/12/17 18:16:37;;;;;;;1999.90;999.90;;;;;;;12.03;68.16;103160.84;10460425;28;20072;-66
2023/12/17 18:21:40;;;;;;;1999.90;999.90;;;;;;;12.67;67.85;103153.88;10458981;28;20055;-66
2023/12/17 18:26:43;;;;;;;1999.90;999.90;;;;;;;12.56;67.44;103160.31;10458328;28;20427;-66
2023/12/17 18:31:45;;;;;;;1999.90;999.90;;;;;;;12.54;67.34;103161.25;10459088;28;20395;-66
2023/12/17 18:36:48;;;;;;;1999.90;999.90;;;;;;;12.41;67.07;103153.72;10459123;28;20080;-67
2023/12/17 18:41:50;;;;;;;1999.90;999.90;;;;;;;12.04;69.40;103151.22;10459058;28;20502;-66
2023/12/17 18:46:52;;;;;;;1999.90;999.90;;;;;;;12.94;65.97;103146.94;10458778;28;20127;-66
2023/12/17 18:51:55;;;;;;;1999.90;999.90;;;;;;;12.36;67.55;103166.13;10458538;28;20070;-66
2023/12/17 18:56:57;;;;;;;1999.90;999.90;;;;;;;12.43;67.00;103158.94;10458196;28;20594;-66
2023/12/17 19:01:59;;;;;;;1999.90;999.90;;;;;;;11.85;67.13;103153.41;10457003;28;20103;-67
2023/12/17 19:07:02;;;;;;;1999.90;999.90;;;;;;;12.05;67.89;103159.06;10458513;28;20072;-66
2023/12/17 19:12:04;;;;;;;1999.90;999.90;;;;;;;12.44;65.95;103165.91;10457572;28;20051;-66
2023/12/17 19:17:09;;;;;;;1999.90;999.90;;;;;;;12.15;67.31;103177.19;10456742;28;20049;-66
2023/12/17 19:22:12;;;;;;;1999.90;999.90;;;;;;;11.87;66.69;103167.38;10457493;28;20047;-67
2023/12/17 19:27:15;;;;;;;1999.90;999.90;;;;;;;12.29;67.04;103167.19;10457398;28;20114;-66
2023/12/17 19:32:18;;;;;;;1999.90;999.90;;;;;;;12.31;66.65;103173.25;10455902;28;20146;-66
2023/12/17 19:37:20;;;;;;;1999.90;999.90;;;;;;;12.02;66.79;103177.50;10455861;28;20057;-66
2023/12/17 19:42:23;;;;;;;1999.90;999.90;;;;;;;12.25;66.72;103182.19;10455678;28;20041;-66
2023/12/17 19:47:25;;;;;;;1999.90;999.90;;;;;;;11.44;67.05;103157.91;10456595;28;20575;-66
2023/12/17 19:52:27;;;;;;;1999.90;999.90;;;;;;;11.46;66.44;103154.34;10456387;28;20491;-66
2023/12/17 19:57:30;;;;;;;1999.90;999.90;;;;;;;11.81;66.69;103143.91;10456425;28;20056;-66
2023/12/17 20:02:37;;;;;;;1999.90;999.90;;;;;;;11.83;66.42;103166.56;10456519;28;20133;-66
2023/12/17 20:07:41;;;;;;;1999.90;999.90;;;;;;;11.90;65.04;103162.03;10456466;28;20055;-66
2023/12/17 20:12:47;;;;;;;1999.90;999.90;;;;;;;12.14;65.50;103171.09;10455885;28;20045;-66
2023/12/17 20:17:50;;;;;;;1999.90;999.90;;;;;;;12.01;65.94;103161.81;10454745;28;20486;-66
2023/12/17 20:22:52;;;;;;;1999.90;999.90;;;;;;;11.57;67.37;103151.47;10455902;28;20049;-66
2023/12/17 20:27:55;;;;;;;1999.90;999.90;;;;;;;11.40;66.82;103145.75;10456709;28;20135;-66
2023/12/17 20:32:57;;;;;;;1999.90;999.90;;;;;;;11.29;65.65;103125.88;10454362;28;20045;-66
2023/12/17 20:38:00;;;;;;;1999.90;999.90;;;;;;;11.28;66.99;103132.03;10454415;28;20052;-66
2023/12/17 20:43:02;;;;;;;1999.90;999.90;;;;;;;11.33;67.62;103148.53;10456511;28;20063;-66
2023/12/17 20:48:05;;;;;;;1999.90;999.90;;;;;;;11.47;64.61;103152.59;10463956;28;20132;-66
2023/12/17 20:53:08;;;;;;;1999.90;999.90;;;;;;;12.18;64.42;103151.69;10475273;22;20395;-65
2023/12/17 20:58:10;;;;;;;1999.90;999.90;;;;;;;11.37;66.52;103133.59;10462455;28;20071;-65
2023/12/17 21:03:13;;;;;;;1999.90;999.90;;;;;;;11.37;64.72;103136.22;10462030;28;20051;-65
2023/12/17 21:08:15;;;;;;;1999.90;999.90;;;;;;;11.67;65.62;103136.38;10462583;28;20078;-65
2023/12/17 21:13:17;;;;;;;1999.90;999.90;;;;;;;11.59;64.27;103127.81;10462374;28;20404;-65
2023/12/17 21:18:20;;;;;;;1999.90;999.90;;;;;;;10.96;65.98;103138.88;10461235;28;20132;-65
2023/12/17 21:23:22;;;;;;;1999.90;999.90;;;;;;;10.97;67.53;103132.72;10462118;28;20171;-65
2023/12/17 21:28:27;;;;;;;1999.90;999.90;;;;;;;11.29;65.33;103132.91;10461777;28;20049;-65
2023/12/17 21:33:29;;;;;;;1999.90;999.90;;;;;;;11.79;64.72;103122.94;10460559;28;20041;-65
2023/12/17 21:38:32;;;;;;;1999.90;999.90;;;;;;;11.05;65.31;103122.06;10461599;28;20075;-65
2023/12/17 21:43:34;;;;;;;1999.90;999.90;;;;;;;11.54;64.87;103138.44;10461247;28;20052;-65
2023/12/17 21:48:37;;;;;;;1999.90;999.90;;;;;;;11.44;66.20;103134.31;10460154;28;20215;-65
2023/12/17 21:53:40;;;;;;;1999.90;999.90;;;;;;;11.19;65.33;103134.00;10460868;28;20049;-65
2023/12/17 21:58:42;;;;;;;1999.90;999.90;;;;;;;11.37;63.64;103130.97;10459722;28;20064;-65